createdAt,value
2023-01-09T00:01:43.246Z,6.70
2023-01-09T00:04:12.221Z,6.70
2023-01-09T00:06:43.247Z,6.70
2023-01-09T00:09:11.745Z,6.70
2023-01-09T00:11:41.523Z,6.70
2023-01-09T00:14:11.035Z,6.70
2023-01-09T00:16:39.381Z,6.70
2023-01-09T00:19:07.507Z,6.70
2023-01-09T00:21:36.504Z,6.70
2023-01-09T00:24:05.941Z,6.70
2023-01-09T00:26:34.622Z,6.70
2023-01-09T00:29:05.980Z,6.70
2023-01-09T00:31:34.215Z,6.70
2023-01-09T00:34:07.199Z,6.70
2023-01-09T00:36:35.351Z,6.70
2023-01-09T00:39:03.579Z,6.70
2023-01-09T00:41:36.724Z,6.70
2023-01-09T00:44:10.853Z,6.70
2023-01-09T00:46:44.559Z,6.70
2023-01-09T00:49:15.575Z,6.70
2023-01-09T00:51:44.320Z,6.70
2023-01-09T00:54:16.245Z,6.70
2023-01-09T00:56:45.092Z,6.70
2023-01-09T00:59:14.766Z,6.70
2023-01-09T01:01:43.118Z,6.60
2023-01-09T01:04:29.192Z,6.60
2023-01-09T01:07:14.749Z,6.60
2023-01-09T01:09:42.950Z,6.60
2023-01-09T01:12:11.172Z,6.60
2023-01-09T01:14:41.265Z,6.60
2023-01-09T01:17:09.374Z,6.60
2023-01-09T01:19:39.376Z,6.60
2023-01-09T01:22:07.624Z,6.60
2023-01-09T01:24:35.810Z,6.60
2023-01-09T01:27:04.191Z,6.60
2023-01-09T01:29:32.391Z,6.60
2023-01-09T01:32:01.887Z,6.60
2023-01-09T01:34:30.660Z,6.60
2023-01-09T01:36:58.815Z,6.50
2023-01-09T01:39:26.990Z,6.50
2023-01-09T01:41:55.141Z,6.50
2023-01-09T01:45:03.705Z,6.50
2023-01-09T01:47:47.217Z,6.50
2023-01-09T01:50:30.724Z,6.50
2023-01-09T01:53:10.049Z,6.50
2023-01-09T01:55:43.804Z,6.50
2023-01-09T01:58:15.829Z,6.50
2023-01-09T02:00:47.773Z,6.50
2023-01-09T02:03:24.415Z,6.50
2023-01-09T02:05:52.623Z,6.50
2023-01-09T02:08:22.018Z,6.50
2023-01-09T02:10:51.081Z,6.50
2023-01-09T02:13:21.091Z,6.50
2023-01-09T02:16:07.607Z,6.50
2023-01-09T02:18:47.736Z,6.40
2023-01-09T02:21:28.225Z,6.50
2023-01-09T02:24:15.586Z,6.50
2023-01-09T02:27:24.311Z,6.50
2023-01-09T02:30:33.729Z,6.50
2023-01-09T02:33:21.331Z,6.50
2023-01-09T02:36:11.583Z,6.50
2023-01-09T02:38:54.620Z,6.50
2023-01-09T02:41:33.163Z,6.50
2023-01-09T02:44:18.651Z,6.50
2023-01-09T02:46:48.220Z,6.50
2023-01-09T02:49:18.717Z,6.60
2023-01-09T02:51:55.026Z,6.60
2023-01-09T02:54:43.236Z,6.60
2023-01-09T02:57:26.965Z,6.60
2023-01-09T03:00:17.176Z,6.50
2023-01-09T03:02:52.891Z,6.40
2023-01-09T03:05:27.019Z,6.40
2023-01-09T03:08:02.661Z,6.40
2023-01-09T03:10:39.441Z,6.30
2023-01-09T03:13:15.151Z,6.30
2023-01-09T03:15:49.548Z,6.30
2023-01-09T03:18:24.854Z,6.30
2023-01-09T03:20:54.670Z,6.30
2023-01-09T03:23:23.445Z,6.30
2023-01-09T03:25:51.553Z,6.30
2023-01-09T03:28:27.985Z,6.30
2023-01-09T03:30:56.601Z,6.20
2023-01-09T03:33:26.057Z,6.20
2023-01-09T03:35:54.129Z,6.20
2023-01-09T03:38:22.374Z,6.20
2023-01-09T03:40:51.249Z,6.20
2023-01-09T03:43:19.332Z,6.20
2023-01-09T03:45:47.490Z,6.20
2023-01-09T03:48:15.866Z,6.20
2023-01-09T03:50:47.248Z,6.20
2023-01-09T03:53:15.827Z,6.10
2023-01-09T03:55:47.506Z,6.20
2023-01-09T03:58:16.300Z,6.20
2023-01-09T04:00:46.026Z,6.20
2023-01-09T04:03:14.268Z,6.20
2023-01-09T04:05:42.897Z,6.20
2023-01-09T04:08:12.647Z,6.20
2023-01-09T04:10:40.854Z,6.30
2023-01-09T04:13:08.986Z,6.30
2023-01-09T04:15:37.177Z,6.30
2023-01-09T04:18:05.732Z,6.30
2023-01-09T04:20:34.526Z,6.30
2023-01-09T04:23:02.715Z,6.30
2023-01-09T04:25:32.189Z,6.30
2023-01-09T04:28:00.324Z,6.40
2023-01-09T04:30:28.445Z,6.40
2023-01-09T04:32:56.607Z,6.40
2023-01-09T04:35:24.834Z,6.50
2023-01-09T04:37:52.935Z,6.50
2023-01-09T04:40:21.351Z,6.50
2023-01-09T04:42:50.855Z,6.50
2023-01-09T04:45:19.073Z,6.50
2023-01-09T04:47:47.840Z,6.50
2023-01-09T04:50:16.074Z,6.50
2023-01-09T04:52:44.421Z,6.50
2023-01-09T04:55:14.265Z,6.50
2023-01-09T04:57:42.395Z,6.50
2023-01-09T05:00:13.096Z,6.50
2023-01-09T05:02:41.863Z,6.60
2023-01-09T05:05:12.106Z,6.60
2023-01-09T05:07:40.827Z,6.60
2023-01-09T05:10:11.073Z,6.60
2023-01-09T05:12:39.758Z,6.70
2023-01-09T05:15:11.341Z,6.70
2023-01-09T05:17:39.558Z,6.70
2023-01-09T05:20:08.631Z,6.70
2023-01-09T05:22:36.920Z,6.70
2023-01-09T05:25:05.613Z,6.80
2023-01-09T05:27:33.743Z,6.80
2023-01-09T05:30:01.885Z,6.80
2023-01-09T05:32:31.442Z,6.80
2023-01-09T05:34:59.739Z,6.90
2023-01-09T05:37:27.904Z,6.90
2023-01-09T05:39:56.055Z,6.90
2023-01-09T05:42:24.140Z,6.90
2023-01-09T05:44:52.227Z,7.00
2023-01-09T05:47:20.302Z,7.00
2023-01-09T05:49:49.820Z,7.00
2023-01-09T05:52:18.011Z,7.10
2023-01-09T05:54:46.112Z,7.10
2023-01-09T05:57:14.314Z,7.10
2023-01-09T05:59:42.454Z,7.10
2023-01-09T06:02:10.748Z,7.20
2023-01-09T06:04:39.426Z,7.20
2023-01-09T06:07:09.619Z,7.20
2023-01-09T06:09:37.764Z,7.30
2023-01-09T06:12:06.328Z,7.30
2023-01-09T06:14:34.584Z,7.40
2023-01-09T06:17:02.705Z,7.40
2023-01-09T06:19:30.949Z,7.50
2023-01-09T06:21:59.090Z,7.50
2023-01-09T06:24:28.621Z,7.50
2023-01-09T06:26:56.796Z,7.60
2023-01-09T06:29:24.978Z,7.60
2023-01-09T06:31:53.086Z,7.60
2023-01-09T06:34:23.730Z,7.70
2023-01-09T06:36:51.822Z,7.70
2023-01-09T06:39:20.167Z,7.60
2023-01-09T06:41:49.638Z,7.60
2023-01-09T06:44:17.929Z,7.60
2023-01-09T06:46:46.053Z,7.60
2023-01-09T06:49:14.314Z,7.60
2023-01-09T06:51:42.463Z,7.50
2023-01-09T06:54:10.535Z,7.50
2023-01-09T06:56:38.675Z,7.50
2023-01-09T06:59:08.291Z,7.50
2023-01-09T07:01:36.532Z,7.50
2023-01-09T07:04:06.472Z,7.60
2023-01-09T07:06:35.360Z,7.60
2023-01-09T07:09:04.448Z,7.60
2023-01-09T07:11:32.897Z,7.50
2023-01-09T07:14:01.029Z,7.60
2023-01-09T07:16:30.478Z,7.60
2023-01-09T07:18:58.835Z,7.60
2023-01-09T07:21:27.655Z,7.60
2023-01-09T07:23:55.788Z,7.60
2023-01-09T07:26:23.992Z,7.70
2023-01-09T07:28:52.164Z,7.70
2023-01-09T07:31:20.336Z,7.70
2023-01-09T07:33:49.858Z,7.60
2023-01-09T07:36:18.051Z,7.70
2023-01-09T07:38:46.279Z,7.70
2023-01-09T07:41:14.437Z,7.70
2023-01-09T07:43:42.582Z,7.60
2023-01-09T07:46:10.744Z,7.60
2023-01-09T07:48:38.968Z,7.70
2023-01-09T07:51:10.298Z,7.60
2023-01-09T07:53:38.435Z,7.60
2023-01-09T07:56:07.331Z,7.70
2023-01-09T07:58:35.514Z,7.70
2023-01-09T08:01:03.727Z,7.60
2023-01-09T08:03:33.392Z,7.70
2023-01-09T08:06:01.926Z,7.70
2023-01-09T08:08:31.414Z,7.70
2023-01-09T08:11:01.577Z,7.70
2023-01-09T08:13:29.704Z,7.70
2023-01-09T08:15:57.890Z,7.70
2023-01-09T08:18:26.106Z,7.70
2023-01-09T08:20:54.254Z,7.70
2023-01-09T08:23:22.419Z,7.80
2023-01-09T08:25:51.916Z,7.80
2023-01-09T08:28:20.007Z,7.80
2023-01-09T08:30:48.835Z,7.80
2023-01-09T08:33:17.044Z,7.80
2023-01-09T08:35:45.349Z,7.80
2023-01-09T08:38:13.485Z,7.80
2023-01-09T08:40:41.640Z,7.80
2023-01-09T08:43:29.363Z,7.80
2023-01-09T08:46:15.249Z,7.90
2023-01-09T08:48:43.657Z,7.90
2023-01-09T08:51:12.143Z,7.80
2023-01-09T08:53:40.324Z,7.80
2023-01-09T08:56:10.106Z,7.80
2023-01-09T08:58:39.565Z,7.90
2023-01-09T09:01:08.835Z,7.90
2023-01-09T09:03:37.110Z,7.90
2023-01-09T09:06:09.224Z,7.90
2023-01-09T09:08:37.354Z,7.90
2023-01-09T09:11:05.589Z,7.90
2023-01-09T09:13:33.751Z,7.90
2023-01-09T09:16:03.254Z,8.00
2023-01-09T09:18:31.467Z,8.00
2023-01-09T09:20:59.579Z,8.10
2023-01-09T09:23:27.694Z,8.10
2023-01-09T09:25:55.810Z,8.00
2023-01-09T09:28:24.318Z,8.10
2023-01-09T09:30:52.456Z,8.20
2023-01-09T09:33:22.191Z,8.30
2023-01-09T09:35:50.442Z,8.40
2023-01-09T09:38:19.541Z,8.40
2023-01-09T09:41:34.143Z,8.50
2023-01-09T09:44:48.392Z,8.50
2023-01-09T09:47:45.936Z,8.60
2023-01-09T09:51:04.091Z,8.40
2023-01-09T09:53:39.408Z,8.40
2023-01-09T09:56:15.721Z,8.40
2023-01-09T09:58:49.027Z,8.30
2023-01-09T10:01:25.359Z,8.30
2023-01-09T10:03:59.120Z,8.40
2023-01-09T10:06:32.461Z,8.30
2023-01-09T10:09:10.481Z,8.40
2023-01-09T10:11:55.193Z,8.40
2023-01-09T10:14:24.920Z,8.40
2023-01-09T10:17:19.818Z,8.50
2023-01-09T10:20:21.676Z,8.50
2023-01-09T10:23:04.092Z,8.50
2023-01-09T10:25:46.197Z,8.60
2023-01-09T10:28:38.358Z,8.60
2023-01-09T10:31:17.408Z,8.60
2023-01-09T10:34:05.474Z,8.70
2023-01-09T10:37:00.379Z,8.70
2023-01-09T10:39:40.035Z,8.80
2023-01-09T10:42:19.374Z,8.90
2023-01-09T10:44:56.403Z,8.90
2023-01-09T10:47:31.451Z,8.90
2023-01-09T10:50:02.675Z,8.90
2023-01-09T10:52:37.993Z,8.70
2023-01-09T10:55:20.548Z,8.70
2023-01-09T10:57:55.432Z,8.70
2023-01-09T11:00:25.955Z,8.70
2023-01-09T11:02:55.846Z,8.70
2023-01-09T11:05:28.418Z,8.70
2023-01-09T11:08:05.654Z,8.80
2023-01-09T11:10:49.651Z,8.80
2023-01-09T11:13:23.497Z,8.70
2023-01-09T11:16:07.629Z,8.70
2023-01-09T11:18:40.688Z,8.70
2023-01-09T11:21:35.519Z,8.70
2023-01-09T11:24:30.910Z,8.60
2023-01-09T11:27:28.405Z,8.60
2023-01-09T11:30:26.954Z,8.50
2023-01-09T11:32:57.067Z,8.50
2023-01-09T11:35:33.098Z,8.50
2023-01-09T11:38:15.960Z,8.60
2023-01-09T11:40:51.223Z,8.50
2023-01-09T11:43:34.108Z,8.60
2023-01-09T11:46:08.882Z,8.60
2023-01-09T11:48:54.047Z,8.60
2023-01-09T11:51:25.144Z,8.60
2023-01-09T11:54:23.603Z,8.60
2023-01-09T11:56:52.595Z,8.60
2023-01-09T11:59:27.238Z,8.70
2023-01-09T12:02:39.956Z,8.70
2023-01-09T12:05:22.797Z,8.80
2023-01-09T12:08:16.523Z,8.80
2023-01-09T12:11:13.373Z,8.80
2023-01-09T12:14:04.856Z,8.80
2023-01-09T12:16:45.248Z,8.80
2023-01-09T12:19:42.747Z,8.80
2023-01-09T12:22:25.143Z,8.70
2023-01-09T12:25:34.973Z,8.70
2023-01-09T12:28:38.704Z,8.80
2023-01-09T12:31:25.527Z,8.80
2023-01-09T12:34:09.259Z,8.80
2023-01-09T12:36:52.667Z,8.80
2023-01-09T12:39:44.086Z,8.80
2023-01-09T12:42:40.715Z,8.80
2023-01-09T12:45:34.362Z,8.80
2023-01-09T12:48:13.507Z,9.00
2023-01-09T12:51:10.309Z,9.00
2023-01-09T12:53:43.643Z,9.00
2023-01-09T12:56:17.968Z,9.10
2023-01-09T12:58:52.864Z,9.20
2023-01-09T13:01:29.683Z,9.30
2023-01-09T13:04:12.459Z,9.40
2023-01-09T13:06:51.273Z,9.50
2023-01-09T13:09:27.816Z,9.50
2023-01-09T13:12:06.190Z,9.60
2023-01-09T13:14:49.882Z,9.60
2023-01-09T13:17:24.475Z,9.60
2023-01-09T13:19:53.188Z,9.50
2023-01-09T13:22:28.349Z,9.50
2023-01-09T13:25:21.702Z,9.40
2023-01-09T13:28:00.386Z,9.50
2023-01-09T13:30:50.669Z,9.60
2023-01-09T13:33:23.172Z,9.80
2023-01-09T13:35:54.962Z,9.80
2023-01-09T13:38:26.822Z,9.80
2023-01-09T13:41:32.276Z,9.70
2023-01-09T13:44:04.435Z,9.70
2023-01-09T13:46:42.592Z,9.70
2023-01-09T13:50:05.842Z,9.70
2023-01-09T13:52:37.824Z,9.60
2023-01-09T13:55:35.545Z,9.60
2023-01-09T13:58:24.510Z,9.60
2023-01-09T14:01:04.924Z,9.50
2023-01-09T14:03:37.623Z,9.50
2023-01-09T14:06:22.303Z,9.50
2023-01-09T14:09:11.847Z,9.40
2023-01-09T14:11:41.900Z,9.30
2023-01-09T14:14:28.819Z,9.20
2023-01-09T14:16:59.136Z,9.20
2023-01-09T14:19:38.214Z,9.20
2023-01-09T14:22:08.471Z,9.20
2023-01-09T14:24:46.309Z,9.10
2023-01-09T14:28:06.317Z,9.10
2023-01-09T14:30:37.815Z,9.10
2023-01-09T14:33:26.236Z,9.10
2023-01-09T14:36:06.397Z,9.10
2023-01-09T14:38:38.554Z,9.10
2023-01-09T14:41:20.982Z,9.10
2023-01-09T14:44:03.028Z,9.10
2023-01-09T14:46:38.651Z,9.10
2023-01-09T14:49:21.821Z,9.00
2023-01-09T14:51:51.770Z,9.00
2023-01-09T14:54:30.948Z,8.90
2023-01-09T14:57:02.400Z,8.90
2023-01-09T14:59:32.038Z,8.90
2023-01-09T15:02:00.724Z,8.80
2023-01-09T15:04:34.966Z,8.80
2023-01-09T15:07:04.854Z,8.80
2023-01-09T15:09:43.724Z,8.80
2023-01-09T15:12:20.442Z,8.70
2023-01-09T15:14:56.623Z,8.70
2023-01-09T15:17:30.547Z,8.60
2023-01-09T15:20:01.720Z,8.40
2023-01-09T15:22:32.113Z,8.00
2023-01-09T15:25:13.421Z,7.80
2023-01-09T15:27:49.531Z,7.60
2023-01-09T15:30:29.426Z,7.50
2023-01-09T15:32:58.633Z,7.40
2023-01-09T15:35:28.570Z,7.40
2023-01-09T15:37:58.732Z,7.30
2023-01-09T15:40:34.038Z,7.20
2023-01-09T15:43:03.451Z,7.20
2023-01-09T15:45:39.959Z,7.20
2023-01-09T15:48:25.252Z,7.10
2023-01-09T15:50:58.940Z,7.00
2023-01-09T15:53:29.180Z,7.00
2023-01-09T15:56:07.805Z,7.00
2023-01-09T15:58:38.776Z,6.90
2023-01-09T16:01:28.603Z,6.90
2023-01-09T16:04:05.353Z,6.90
2023-01-09T16:06:37.136Z,6.90
2023-01-09T16:09:16.718Z,6.90
2023-01-09T16:11:52.028Z,6.90
2023-01-09T16:14:27.390Z,6.90
2023-01-09T16:17:03.286Z,7.00
2023-01-09T16:19:44.706Z,7.00
2023-01-09T16:22:22.718Z,7.00
2023-01-09T16:24:53.524Z,6.90
2023-01-09T16:27:28.524Z,6.90
2023-01-09T16:30:00.780Z,6.80
2023-01-09T16:32:33.898Z,6.80
2023-01-09T16:35:06.652Z,6.80
2023-01-09T16:37:37.372Z,6.80
2023-01-09T16:40:32.012Z,6.80
2023-01-09T16:43:01.449Z,6.80
2023-01-09T16:45:34.385Z,6.70
2023-01-09T16:48:12.633Z,6.70
2023-01-09T16:50:41.265Z,6.60
2023-01-09T16:53:18.513Z,6.60
2023-01-09T16:55:47.459Z,6.50
2023-01-09T16:58:18.917Z,6.50
2023-01-09T17:00:47.898Z,6.60
2023-01-09T17:03:20.069Z,6.60
2023-01-09T17:05:51.739Z,6.60
2023-01-09T17:08:25.760Z,6.70
2023-01-09T17:10:56.260Z,6.70
2023-01-09T17:13:25.217Z,6.70
2023-01-09T17:15:55.082Z,6.70
2023-01-09T17:18:27.669Z,6.70
2023-01-09T17:20:58.645Z,6.70
2023-01-09T17:23:26.769Z,6.70
2023-01-09T17:26:16.789Z,6.80
2023-01-09T17:28:51.239Z,6.80
2023-01-09T17:31:20.213Z,6.80
2023-01-09T17:33:50.137Z,6.70
2023-01-09T17:36:29.352Z,6.70
2023-01-09T17:38:57.525Z,6.60
2023-01-09T17:41:27.961Z,6.50
2023-01-09T17:43:57.275Z,6.40
2023-01-09T17:46:30.268Z,6.30
2023-01-09T17:49:00.835Z,6.20
2023-01-09T17:51:29.618Z,6.10
2023-01-09T17:53:58.626Z,6.00
2023-01-09T17:56:30.150Z,6.00
2023-01-09T17:58:58.372Z,6.00
2023-01-09T18:01:26.716Z,6.00
2023-01-09T18:03:54.952Z,6.10
2023-01-09T18:06:26.999Z,6.10
2023-01-09T18:08:57.960Z,6.10
2023-01-09T18:11:26.806Z,6.10
2023-01-09T18:13:55.028Z,6.10
2023-01-09T18:16:26.428Z,6.00
2023-01-09T18:18:57.654Z,6.00
2023-01-09T18:21:30.281Z,5.90
2023-01-09T18:24:01.365Z,5.80
2023-01-09T18:26:29.580Z,5.70
2023-01-09T18:29:00.435Z,5.70
2023-01-09T18:31:30.323Z,5.70
2023-01-09T18:34:02.383Z,5.70
2023-01-09T18:36:33.746Z,5.70
2023-01-09T18:39:05.507Z,5.70
2023-01-09T18:41:34.028Z,5.80
2023-01-09T18:44:03.141Z,5.80
2023-01-09T18:46:32.382Z,5.90
2023-01-09T18:49:03.739Z,5.90
2023-01-09T18:51:36.320Z,5.90
2023-01-09T18:54:07.958Z,5.90
2023-01-09T18:56:36.744Z,5.90
2023-01-09T18:59:04.979Z,5.80
2023-01-09T19:01:33.811Z,5.80
2023-01-09T19:04:02.155Z,5.80
2023-01-09T19:06:32.354Z,5.80
2023-01-09T19:09:00.901Z,5.70
2023-01-09T19:11:29.455Z,5.80
2023-01-09T19:13:57.866Z,5.80
2023-01-09T19:16:26.088Z,5.80
2023-01-09T19:18:54.314Z,5.80
2023-01-09T19:21:26.685Z,5.80
2023-01-09T19:23:58.657Z,5.80
2023-01-09T19:26:30.838Z,5.70
2023-01-09T19:28:59.181Z,5.70
2023-01-09T19:31:29.801Z,5.60
2023-01-09T19:33:59.117Z,5.60
2023-01-09T19:36:29.061Z,5.50
2023-01-09T19:38:59.909Z,5.40
2023-01-09T19:41:29.588Z,5.30
2023-01-09T19:43:57.851Z,5.30
2023-01-09T19:46:29.505Z,5.20
2023-01-09T19:48:58.915Z,5.20
2023-01-09T19:51:27.112Z,5.10
2023-01-09T19:56:35.031Z,5.00
2023-01-09T19:59:05.692Z,5.00
2023-01-09T20:01:37.142Z,5.00
2023-01-09T20:04:13.382Z,5.10
2023-01-09T20:06:43.820Z,5.20
2023-01-09T20:09:15.802Z,5.20
2023-01-09T20:11:44.763Z,5.30
2023-01-09T20:14:14.492Z,5.30
2023-01-09T20:16:44.282Z,5.40
2023-01-09T20:19:14.778Z,5.40
2023-01-09T20:21:46.103Z,5.40
2023-01-09T20:24:17.761Z,5.50
2023-01-09T20:26:50.032Z,5.50
2023-01-09T20:29:18.298Z,5.60
2023-01-09T20:31:46.579Z,5.60
2023-01-09T20:34:16.256Z,5.60
2023-01-09T20:36:44.758Z,5.60
2023-01-09T20:39:14.982Z,5.60
2023-01-09T20:41:43.197Z,5.60
2023-01-09T20:44:15.603Z,5.60
2023-01-09T20:46:47.809Z,5.60
2023-01-09T20:49:19.091Z,5.60
2023-01-09T20:51:50.348Z,5.70
2023-01-09T20:54:22.476Z,5.70
2023-01-09T20:56:51.137Z,5.80
2023-01-09T20:59:21.905Z,5.80
2023-01-09T21:01:50.610Z,5.80
2023-01-09T21:04:19.065Z,5.90
2023-01-09T21:06:49.746Z,5.90
2023-01-09T21:09:20.252Z,5.90
2023-01-09T21:11:51.608Z,6.00
2023-01-09T21:14:20.038Z,6.00
2023-01-09T21:16:54.500Z,6.00
2023-01-09T21:19:23.847Z,6.00
2023-01-09T21:21:53.397Z,6.00
2023-01-09T21:24:23.236Z,6.00
2023-01-09T21:26:51.387Z,6.10
2023-01-09T21:29:19.603Z,6.10
2023-01-09T21:31:47.852Z,6.00
2023-01-09T21:34:19.996Z,6.10
2023-01-09T21:36:48.820Z,6.10
2023-01-09T21:39:18.287Z,6.00
2023-01-09T21:42:13.593Z,6.00
2023-01-09T21:44:59.498Z,6.10
2023-01-09T21:47:27.593Z,6.10
2023-01-09T21:49:55.760Z,6.00
2023-01-09T21:52:25.577Z,6.00
2023-01-09T21:54:53.727Z,6.00
2023-01-09T21:57:23.235Z,6.00
2023-01-09T21:59:51.487Z,6.00
2023-01-09T22:02:19.628Z,6.00
2023-01-09T22:04:48.944Z,6.00
2023-01-09T22:07:17.399Z,6.00
2023-01-09T22:09:45.856Z,6.00
2023-01-09T22:12:14.306Z,6.00
2023-01-09T22:14:44.079Z,6.10
2023-01-09T22:17:12.207Z,6.20
2023-01-09T22:19:40.438Z,6.20
2023-01-09T22:22:08.669Z,6.20
2023-01-09T22:24:36.928Z,6.20
2023-01-09T22:27:05.503Z,6.20
2023-01-09T22:29:34.065Z,6.20
2023-01-09T22:32:03.983Z,6.20
2023-01-09T22:34:32.281Z,6.20
2023-01-09T22:37:00.530Z,6.20
2023-01-09T22:39:28.747Z,6.30
2023-01-09T22:41:59.011Z,6.30
2023-01-09T22:44:29.591Z,6.30
2023-01-09T22:46:58.344Z,6.30
2023-01-09T22:49:30.194Z,6.30
2023-01-09T22:52:01.501Z,6.20
2023-01-09T22:54:29.670Z,6.20
2023-01-09T22:56:57.817Z,6.20
2023-01-09T22:59:27.248Z,6.20
2023-01-09T23:01:56.838Z,6.20
2023-01-09T23:04:25.017Z,6.20
2023-01-09T23:06:54.921Z,6.20
2023-01-09T23:09:23.154Z,6.20
2023-01-09T23:12:03.569Z,6.20
2023-01-09T23:14:34.029Z,6.20
2023-01-09T23:17:02.549Z,6.20
2023-01-09T23:19:32.684Z,6.20
2023-01-09T23:22:03.624Z,6.20
2023-01-09T23:24:32.477Z,6.10
2023-01-09T23:27:00.896Z,6.10
2023-01-09T23:29:29.835Z,6.10
2023-01-09T23:31:58.179Z,6.10
2023-01-09T23:34:27.550Z,6.10
2023-01-09T23:36:57.961Z,6.10
2023-01-09T23:39:27.474Z,6.10
2023-01-09T23:42:13.237Z,6.10
2023-01-09T23:44:41.356Z,6.10
2023-01-09T23:47:09.522Z,6.10
2023-01-09T23:49:38.695Z,6.10
2023-01-09T23:52:08.531Z,6.10
2023-01-09T23:54:38.167Z,6.10
2023-01-09T23:57:06.527Z,6.10
2023-01-09T23:59:34.871Z,6.10
